createdAt,value
2022-09-21T00:00:49.284Z,966.63
2022-09-21T00:01:49.084Z,966.64
2022-09-21T00:03:49.262Z,966.62
2022-09-21T00:04:49.198Z,966.64
2022-09-21T00:05:49.160Z,966.61
2022-09-21T00:06:49.240Z,966.59
2022-09-21T00:08:49.172Z,966.6
2022-09-21T00:09:49.137Z,966.62
2022-09-21T00:10:49.199Z,966.58
2022-09-21T00:11:49.180Z,966.56
2022-09-21T00:13:49.211Z,966.53
2022-09-21T00:16:49.266Z,966.57
2022-09-21T00:18:49.246Z,966.56
2022-09-21T00:19:49.221Z,966.57
2022-09-21T00:20:49.177Z,966.54
2022-09-21T00:21:49.253Z,966.56
2022-09-21T00:23:49.309Z,966.53
2022-09-21T00:24:49.145Z,966.54
2022-09-21T00:27:49.144Z,966.5
2022-09-21T00:30:49.269Z,966.52
2022-09-21T00:31:49.297Z,966.47
2022-09-21T00:32:49.183Z,966.48
2022-09-21T00:34:49.250Z,966.45
2022-09-21T00:35:49.311Z,966.41
2022-09-21T00:36:49.282Z,966.42
2022-09-21T00:37:49.245Z,966.41
2022-09-21T00:38:49.318Z,966.42
2022-09-21T00:39:49.284Z,966.41
2022-09-21T00:40:49.253Z,966.42
2022-09-21T00:41:49.191Z,966.41
2022-09-21T00:43:49.253Z,966.42
2022-09-21T00:44:49.231Z,966.4
2022-09-21T00:45:49.314Z,966.41
2022-09-21T00:46:49.257Z,966.4
2022-09-21T00:48:49.183Z,966.42
2022-09-21T00:51:49.299Z,966.41
2022-09-21T00:52:49.367Z,966.42
2022-09-21T00:53:49.197Z,966.4
2022-09-21T00:54:49.294Z,966.41
2022-09-21T00:55:49.274Z,966.4
2022-09-21T00:56:49.238Z,966.44
2022-09-21T00:57:49.217Z,966.47
2022-09-21T00:59:49.335Z,966.49
2022-09-21T01:02:49.292Z,966.52
2022-09-21T01:03:49.254Z,966.46
2022-09-21T01:04:49.241Z,966.47
2022-09-21T01:05:49.361Z,966.5
2022-09-21T01:07:49.394Z,966.46
2022-09-21T01:08:49.248Z,966.49
2022-09-21T01:09:49.260Z,966.5
2022-09-21T01:10:49.401Z,966.52
2022-09-21T01:11:49.267Z,966.5
2022-09-21T01:12:49.259Z,966.48
2022-09-21T01:13:49.263Z,966.53
2022-09-21T01:14:49.258Z,966.52
2022-09-21T01:16:49.299Z,966.5
2022-09-21T01:17:49.278Z,966.53
2022-09-21T01:18:49.347Z,966.51
2022-09-21T01:19:50.634Z,966.54
2022-09-21T01:21:49.283Z,966.57
2022-09-21T01:22:49.409Z,966.52
2022-09-21T01:23:49.281Z,966.48
2022-09-21T01:24:49.287Z,966.5
2022-09-21T01:25:49.418Z,966.48
2022-09-21T01:27:49.293Z,966.45
2022-09-21T01:28:49.303Z,966.46
2022-09-21T01:31:49.478Z,966.45
2022-09-21T01:32:49.300Z,966.46
2022-09-21T01:33:49.317Z,966.45
2022-09-21T01:34:49.311Z,966.47
2022-09-21T01:35:49.391Z,966.45
2022-09-21T01:36:49.331Z,966.48
2022-09-21T01:37:49.431Z,966.49
2022-09-21T01:38:49.395Z,966.46
2022-09-21T01:39:49.323Z,966.49
2022-09-21T01:40:49.450Z,966.48
2022-09-21T01:41:49.409Z,966.5
2022-09-21T01:42:49.471Z,966.47
2022-09-21T01:43:49.434Z,966.51
2022-09-21T01:45:49.515Z,966.49
2022-09-21T01:46:49.486Z,966.46
2022-09-21T01:47:49.412Z,966.48
2022-09-21T01:48:49.349Z,966.46
2022-09-21T01:49:49.451Z,966.43
2022-09-21T01:50:49.418Z,966.48
2022-09-21T01:51:49.362Z,966.43
2022-09-21T01:54:50.815Z,966.45
2022-09-21T01:55:49.455Z,966.44
2022-09-21T01:56:49.438Z,966.45
2022-09-21T01:57:49.367Z,966.46
2022-09-21T01:58:49.461Z,966.43
2022-09-21T02:00:49.403Z,966.46
2022-09-21T02:03:49.508Z,966.48
2022-09-21T02:04:49.383Z,966.47
2022-09-21T02:05:49.540Z,966.46
2022-09-21T02:07:49.387Z,966.43
2022-09-21T02:08:49.536Z,966.46
2022-09-21T02:11:49.401Z,966.47
2022-09-21T02:12:49.512Z,966.48
2022-09-21T02:13:49.486Z,966.5
2022-09-21T02:14:49.412Z,966.46
2022-09-21T02:15:49.553Z,966.43
2022-09-21T02:16:49.484Z,966.45
2022-09-21T02:17:49.424Z,966.43
2022-09-21T02:18:49.530Z,966.45
2022-09-21T02:19:49.491Z,966.43
2022-09-21T02:20:49.418Z,966.47
2022-09-21T02:21:49.524Z,966.43
2022-09-21T02:22:49.506Z,966.44
2022-09-21T02:23:49.574Z,966.43
2022-09-21T02:24:49.428Z,966.49
2022-09-21T02:25:49.490Z,966.44
2022-09-21T02:26:49.442Z,966.45
2022-09-21T02:27:49.536Z,966.42
2022-09-21T02:28:49.506Z,966.38
2022-09-21T02:29:49.568Z,966.4
2022-09-21T02:30:49.530Z,966.39
2022-09-21T02:31:49.602Z,966.35
2022-09-21T02:32:49.456Z,966.39
2022-09-21T02:33:49.536Z,966.4
2022-09-21T02:34:49.454Z,966.39
2022-09-21T02:35:49.579Z,966.43
2022-09-21T02:36:49.548Z,966.39
2022-09-21T02:37:49.471Z,966.41
2022-09-21T02:38:49.470Z,966.42
2022-09-21T02:39:49.546Z,966.46
2022-09-21T02:40:49.514Z,966.41
2022-09-21T02:41:49.593Z,966.44
2022-09-21T02:42:49.548Z,966.46
2022-09-21T02:43:49.481Z,966.45
2022-09-21T02:44:49.594Z,966.44
2022-09-21T02:45:49.552Z,966.46
2022-09-21T02:46:49.573Z,966.39
2022-09-21T02:47:49.590Z,966.4
2022-09-21T02:49:49.497Z,966.43
2022-09-21T02:50:49.593Z,966.41
2022-09-21T02:53:49.603Z,966.43
2022-09-21T02:54:49.569Z,966.41
2022-09-21T02:55:53.106Z,966.42
2022-09-21T02:56:49.599Z,966.4
2022-09-21T02:57:49.574Z,966.39
2022-09-21T02:58:49.528Z,966.43
2022-09-21T03:00:49.540Z,966.42
2022-09-21T03:01:49.674Z,966.41
2022-09-21T03:03:49.682Z,966.44
2022-09-21T03:04:49.649Z,966.47
2022-09-21T03:05:49.622Z,966.41
2022-09-21T03:06:49.817Z,966.44
2022-09-21T03:07:49.650Z,966.46
2022-09-21T03:09:49.535Z,966.4
2022-09-21T03:10:49.650Z,966.39
2022-09-21T03:11:49.626Z,966.42
2022-09-21T03:12:49.692Z,966.35
2022-09-21T03:13:49.658Z,966.37
2022-09-21T03:14:49.636Z,966.38
2022-09-21T03:15:49.602Z,966.4
2022-09-21T03:16:49.662Z,966.39
2022-09-21T03:17:49.556Z,966.41
2022-09-21T03:18:50.728Z,966.39
2022-09-21T03:19:49.677Z,966.41
2022-09-21T03:20:49.631Z,966.39
2022-09-21T03:21:49.707Z,966.42
2022-09-21T03:22:49.677Z,966.41
2022-09-21T03:23:49.636Z,966.35
2022-09-21T03:24:49.711Z,966.33
2022-09-21T03:25:49.680Z,966.38
2022-09-21T03:26:49.647Z,966.37
2022-09-21T03:27:49.574Z,966.41
2022-09-21T03:28:49.683Z,966.39
2022-09-21T03:29:49.764Z,966.38
2022-09-21T03:31:49.695Z,966.37
2022-09-21T03:32:49.652Z,966.4
2022-09-21T03:33:49.603Z,966.41
2022-09-21T03:34:49.689Z,966.36
2022-09-21T03:35:49.659Z,966.38
2022-09-21T03:36:49.729Z,966.4
2022-09-21T03:37:49.689Z,966.41
2022-09-21T03:38:49.659Z,966.43
2022-09-21T03:40:49.698Z,966.42
2022-09-21T03:41:49.625Z,966.44
2022-09-21T03:42:49.733Z,966.43
2022-09-21T03:43:49.626Z,966.45
2022-09-21T03:44:49.771Z,966.44
2022-09-21T03:46:49.711Z,966.48
2022-09-21T03:47:49.770Z,966.45
2022-09-21T03:48:49.749Z,966.49
2022-09-21T03:49:49.627Z,966.47
2022-09-21T03:50:49.782Z,966.51
2022-09-21T03:52:49.715Z,966.53
2022-09-21T03:53:49.786Z,966.54
2022-09-21T03:54:49.749Z,966.52
2022-09-21T03:55:49.653Z,966.53
2022-09-21T03:57:49.755Z,966.5
2022-09-21T03:58:49.725Z,966.52
2022-09-21T03:59:49.900Z,966.49
2022-09-21T04:00:49.654Z,966.51
2022-09-21T04:01:49.783Z,966.54
2022-09-21T04:02:49.738Z,966.52
2022-09-21T04:03:49.761Z,966.56
2022-09-21T04:04:52.435Z,966.52
2022-09-21T04:05:49.796Z,966.51
2022-09-21T04:06:49.677Z,966.5
2022-09-21T04:07:49.738Z,966.51
2022-09-21T04:10:49.730Z,966.52
2022-09-21T04:11:49.719Z,966.53
2022-09-21T04:13:49.685Z,966.55
2022-09-21T04:14:49.822Z,966.56
2022-09-21T04:16:49.700Z,966.57
2022-09-21T04:17:49.723Z,966.55
2022-09-21T04:18:49.712Z,966.6
2022-09-21T04:19:49.749Z,966.58
2022-09-21T04:21:49.785Z,966.59
2022-09-21T04:22:49.716Z,966.57
2022-09-21T04:23:49.730Z,966.6
2022-09-21T04:24:49.725Z,966.58
2022-09-21T04:25:49.722Z,966.61
2022-09-21T04:26:49.834Z,966.57
2022-09-21T04:27:49.738Z,966.59
2022-09-21T04:28:49.866Z,966.63
2022-09-21T04:29:49.826Z,966.62
2022-09-21T04:30:49.826Z,966.61
2022-09-21T04:31:49.867Z,966.63
2022-09-21T04:32:49.848Z,966.67
2022-09-21T04:33:49.796Z,966.68
2022-09-21T04:34:49.763Z,966.69
2022-09-21T04:35:49.839Z,966.64
2022-09-21T04:36:49.810Z,966.67
2022-09-21T04:37:51.096Z,966.61
2022-09-21T04:38:49.846Z,966.68
2022-09-21T04:39:49.915Z,966.65
2022-09-21T04:41:49.770Z,966.61
2022-09-21T04:43:49.890Z,966.6
2022-09-21T04:44:49.849Z,966.62
2022-09-21T04:45:49.895Z,966.63
2022-09-21T04:46:49.776Z,966.66
2022-09-21T04:47:49.852Z,966.63
2022-09-21T04:48:49.934Z,966.65
2022-09-21T04:49:49.774Z,966.62
2022-09-21T04:50:49.862Z,966.66
2022-09-21T04:52:49.887Z,966.65
2022-09-21T04:54:49.939Z,966.64
2022-09-21T04:55:49.794Z,966.66
2022-09-21T04:56:49.868Z,966.68
2022-09-21T04:57:49.942Z,966.66
2022-09-21T04:58:49.892Z,966.64
2022-09-21T05:00:49.803Z,966.66
2022-09-21T05:01:49.930Z,966.67
2022-09-21T05:02:49.878Z,966.71
2022-09-21T05:03:49.869Z,966.67
2022-09-21T05:07:49.912Z,966.71
2022-09-21T05:08:49.988Z,966.69
2022-09-21T05:09:54.266Z,966.7
2022-09-21T05:12:49.884Z,966.72
2022-09-21T05:13:49.924Z,966.7
2022-09-21T05:14:49.833Z,966.74
2022-09-21T05:15:49.993Z,966.72
2022-09-21T05:16:49.852Z,966.77
2022-09-21T05:17:50.013Z,966.75
2022-09-21T05:18:49.967Z,966.76
2022-09-21T05:19:49.926Z,966.74
2022-09-21T05:20:49.927Z,966.75
2022-09-21T05:22:49.852Z,966.78
2022-09-21T05:23:49.999Z,966.81
2022-09-21T05:24:49.974Z,966.75
2022-09-21T05:25:49.868Z,966.81
2022-09-21T05:26:50.020Z,966.78
2022-09-21T05:27:49.975Z,966.81
2022-09-21T05:29:49.885Z,966.84
2022-09-21T05:31:49.971Z,966.85
2022-09-21T05:32:49.894Z,966.86
2022-09-21T05:33:49.902Z,966.87
2022-09-21T05:34:49.957Z,966.83
2022-09-21T05:35:50.022Z,966.89
2022-09-21T05:36:49.887Z,966.9
2022-09-21T05:37:49.883Z,966.89
2022-09-21T05:38:50.036Z,966.84
2022-09-21T05:39:49.895Z,966.87
2022-09-21T05:40:49.951Z,966.86
2022-09-21T05:41:50.021Z,966.9
2022-09-21T05:42:49.907Z,966.87
2022-09-21T05:43:50.068Z,966.92
2022-09-21T05:44:49.905Z,966.91
2022-09-21T05:45:50.057Z,966.92
2022-09-21T05:46:54.036Z,966.9
2022-09-21T05:47:50.027Z,966.91
2022-09-21T05:48:49.924Z,966.94
2022-09-21T05:49:49.922Z,966.91
2022-09-21T05:50:50.047Z,966.95
2022-09-21T05:51:50.032Z,966.96
2022-09-21T05:52:49.942Z,966.92
2022-09-21T05:53:50.043Z,966.96
2022-09-21T05:54:50.019Z,966.97
2022-09-21T05:56:50.063Z,966.99
2022-09-21T05:57:50.007Z,967
2022-09-21T05:59:50.055Z,967.02
2022-09-21T06:03:50.079Z,967.04
2022-09-21T06:04:50.124Z,967.02
2022-09-21T06:05:50.056Z,967.03
2022-09-21T06:06:50.027Z,967.05
2022-09-21T06:07:49.957Z,967.03
2022-09-21T06:08:50.066Z,967.04
2022-09-21T06:10:50.105Z,967.03
2022-09-21T06:11:50.068Z,967.05
2022-09-21T06:12:50.038Z,967.07
2022-09-21T06:13:50.105Z,967.03
2022-09-21T06:15:49.983Z,967.06
2022-09-21T06:16:50.123Z,967.04
2022-09-21T06:17:50.080Z,967.03
2022-09-21T06:18:50.147Z,967.04
2022-09-21T06:21:50.019Z,967.06
2022-09-21T06:22:50.139Z,967.04
2022-09-21T06:24:50.003Z,967.05
2022-09-21T06:25:51.872Z,967.04
2022-09-21T06:26:50.088Z,967.03
2022-09-21T06:28:50.124Z,967.07
2022-09-21T06:29:50.084Z,967.04
2022-09-21T06:31:50.132Z,967.09
2022-09-21T06:32:50.089Z,967.06
2022-09-21T06:33:50.022Z,967.07
2022-09-21T06:34:50.149Z,967.03
2022-09-21T06:35:50.108Z,967.05
2022-09-21T06:37:50.133Z,967.06
2022-09-21T06:39:51.240Z,967.03
2022-09-21T06:40:50.142Z,967.01
2022-09-21T06:41:50.095Z,967.02
2022-09-21T06:42:50.068Z,967.06
2022-09-21T06:43:50.145Z,967.04
2022-09-21T06:44:50.109Z,967.07
2022-09-21T06:45:50.116Z,967.04
2022-09-21T06:46:50.146Z,967.07
2022-09-21T06:47:50.113Z,967.06
2022-09-21T06:48:50.189Z,967.05
2022-09-21T06:49:50.149Z,967.04
2022-09-21T06:50:51.449Z,967.09
2022-09-21T06:52:50.156Z,967.07
2022-09-21T06:53:50.220Z,967.11
2022-09-21T06:55:50.074Z,967.13
2022-09-21T06:56:50.117Z,967.14
2022-09-21T06:57:50.190Z,967.12
2022-09-21T06:58:50.105Z,967.14
2022-09-21T07:01:50.267Z,967.15
2022-09-21T07:02:51.365Z,967.13
2022-09-21T07:03:50.208Z,967.18
2022-09-21T07:04:50.169Z,967.19
2022-09-21T07:05:50.142Z,967.21
2022-09-21T07:06:50.106Z,967.17
2022-09-21T07:07:53.473Z,967.2
2022-09-21T07:10:06.573Z,967.23
2022-09-21T07:10:50.193Z,967.24
2022-09-21T07:11:50.278Z,967.22
2022-09-21T07:12:50.219Z,967.33
2022-09-21T07:13:50.204Z,967.64
2022-09-21T07:14:50.255Z,967.9
2022-09-21T07:15:52.706Z,968.1
2022-09-21T07:16:50.358Z,968.19
2022-09-21T07:17:52.176Z,968.22
2022-09-21T07:18:50.220Z,968.27
2022-09-21T07:19:50.410Z,968.22
2022-09-21T07:20:50.137Z,968.25
2022-09-21T07:21:50.139Z,968.16
2022-09-21T07:22:50.144Z,968.12
2022-09-21T07:23:50.265Z,968.02
2022-09-21T07:24:50.232Z,967.97
2022-09-21T07:25:50.143Z,967.96
2022-09-21T07:26:50.141Z,967.92
2022-09-21T07:27:50.230Z,967.88
2022-09-21T07:28:50.150Z,967.82
2022-09-21T07:29:50.233Z,967.81
2022-09-21T07:30:50.240Z,967.78
2022-09-21T07:31:50.198Z,967.73
2022-09-21T07:32:50.276Z,967.62
2022-09-21T07:34:50.308Z,967.67
2022-09-21T07:35:50.163Z,967.6
2022-09-21T07:36:50.243Z,967.64
2022-09-21T07:37:50.315Z,967.54
2022-09-21T07:38:50.285Z,967.51
2022-09-21T07:39:50.254Z,967.53
2022-09-21T07:40:50.221Z,967.59
2022-09-21T07:41:50.282Z,967.58
2022-09-21T07:42:50.253Z,967.63
2022-09-21T07:44:51.192Z,967.58
2022-09-21T07:46:50.187Z,967.59
2022-09-21T07:47:50.189Z,967.62
2022-09-21T07:48:50.259Z,967.6
2022-09-21T07:49:50.231Z,967.54
2022-09-21T07:51:50.260Z,967.53
2022-09-21T07:52:54.611Z,967.51
2022-09-21T07:53:50.208Z,967.54
2022-09-21T07:55:50.228Z,967.6
2022-09-21T07:56:50.306Z,967.55
2022-09-21T07:57:50.385Z,967.47
2022-09-21T08:00:50.297Z,967.51
2022-09-21T08:01:50.377Z,967.48
2022-09-21T08:02:50.364Z,967.45
2022-09-21T08:03:50.244Z,967.4
2022-09-21T08:04:50.355Z,967.42
2022-09-21T08:05:50.234Z,967.36
2022-09-21T08:06:50.249Z,967.32
2022-09-21T08:07:50.380Z,967.28
2022-09-21T08:08:53.780Z,967.21
2022-09-21T08:09:50.254Z,967.14
2022-09-21T08:10:50.351Z,967.17
2022-09-21T08:11:50.258Z,967.11
2022-09-21T08:12:50.402Z,967.09
2022-09-21T08:13:50.371Z,967.08
2022-09-21T08:14:50.359Z,967.12
2022-09-21T08:15:50.532Z,966.94
2022-09-21T08:16:50.526Z,967
2022-09-21T08:19:50.372Z,967.01
2022-09-21T08:20:50.344Z,967.05
2022-09-21T08:21:53.625Z,967
2022-09-21T08:22:50.377Z,967.02
2022-09-21T08:24:50.299Z,966.99
2022-09-21T08:25:50.380Z,967.03
2022-09-21T08:26:50.290Z,967.01
2022-09-21T08:27:50.414Z,967.06
2022-09-21T08:28:50.394Z,966.99
2022-09-21T08:29:54.293Z,966.9
2022-09-21T08:31:50.432Z,966.91
2022-09-21T08:32:51.682Z,966.89
2022-09-21T08:33:50.317Z,966.94
2022-09-21T08:34:50.394Z,966.98
2022-09-21T08:35:50.473Z,966.95
2022-09-21T08:37:50.398Z,966.99
2022-09-21T08:38:50.330Z,966.94
2022-09-21T08:39:50.329Z,966.96
2022-09-21T08:40:50.331Z,966.94
2022-09-21T08:41:50.476Z,966.82
2022-09-21T08:42:50.962Z,966.76
2022-09-21T08:43:50.419Z,966.77
2022-09-21T08:44:50.344Z,966.86
2022-09-21T08:45:50.443Z,966.84
2022-09-21T08:46:50.552Z,966.81
2022-09-21T08:47:50.373Z,966.82
2022-09-21T08:49:50.415Z,966.87
2022-09-21T08:50:50.489Z,966.89
2022-09-21T08:51:50.446Z,966.91
2022-09-21T08:52:50.361Z,966.95
2022-09-21T08:53:50.373Z,966.96
2022-09-21T08:54:50.457Z,966.95
2022-09-21T08:55:50.420Z,966.91
2022-09-21T08:57:03.729Z,966.94
2022-09-21T08:57:50.579Z,966.93
2022-09-21T08:59:50.494Z,966.96
2022-09-21T09:00:50.489Z,966.93
2022-09-21T09:01:50.573Z,966.88
2022-09-21T09:02:50.497Z,966.89
2022-09-21T09:04:51.467Z,966.87
2022-09-21T09:05:50.398Z,966.88
2022-09-21T09:06:50.483Z,966.87
2022-09-21T09:08:50.399Z,966.86
2022-09-21T09:09:50.473Z,966.84
2022-09-21T09:10:50.407Z,966.82
2022-09-21T09:11:50.511Z,966.85
2022-09-21T09:12:50.961Z,966.84
2022-09-21T09:13:50.406Z,966.85
2022-09-21T09:15:50.503Z,966.79
2022-09-21T09:16:50.548Z,966.82
2022-09-21T09:17:50.519Z,966.78
2022-09-21T09:18:50.596Z,966.77
2022-09-21T09:19:50.433Z,966.76
2022-09-21T09:20:50.529Z,966.75
2022-09-21T09:21:50.447Z,966.72
2022-09-21T09:25:50.444Z,966.71
2022-09-21T09:26:50.523Z,966.72
2022-09-21T09:27:50.499Z,966.74
2022-09-21T09:28:53.128Z,966.77
2022-09-21T09:29:50.542Z,966.71
2022-09-21T09:30:50.601Z,966.7
2022-09-21T09:33:51.607Z,966.67
2022-09-21T09:34:50.576Z,966.62
2022-09-21T09:35:50.546Z,966.61
2022-09-21T09:36:58.570Z,966.59
2022-09-21T09:37:50.599Z,966.56
2022-09-21T09:42:50.505Z,966.52
2022-09-21T09:43:50.512Z,966.48
2022-09-21T09:44:50.572Z,966.54
2022-09-21T09:45:50.520Z,966.5
2022-09-21T09:47:50.487Z,966.55
2022-09-21T09:48:53.987Z,966.46
2022-09-21T09:49:50.796Z,966.41
2022-09-21T09:50:50.575Z,966.37
2022-09-21T09:51:50.536Z,966.36
2022-09-21T09:52:50.606Z,966.32
2022-09-21T09:53:50.517Z,966.33
2022-09-21T09:54:50.511Z,966.3
2022-09-21T09:55:50.609Z,966.26
2022-09-21T09:56:50.675Z,966.22
2022-09-21T09:57:50.639Z,966.21
2022-09-21T09:58:50.609Z,966.23
2022-09-21T09:59:54.150Z,966.18
2022-09-21T10:00:50.764Z,966.21
2022-09-21T10:04:50.620Z,966.16
2022-09-21T10:05:50.712Z,966.19
2022-09-21T10:06:50.652Z,966.18
2022-09-21T10:07:50.626Z,966.14
2022-09-21T10:08:50.692Z,966.1
2022-09-21T10:09:50.671Z,966.12
2022-09-21T10:10:50.631Z,966.04
2022-09-21T10:11:50.586Z,966.07
2022-09-21T10:12:50.562Z,966.02
2022-09-21T10:13:50.624Z,966.05
2022-09-21T10:17:50.570Z,966
2022-09-21T10:18:50.672Z,966.03
2022-09-21T10:19:50.570Z,965.97
2022-09-21T10:20:50.706Z,965.96
2022-09-21T10:21:52.180Z,965.95
2022-09-21T10:23:50.582Z,965.96
2022-09-21T10:24:50.679Z,965.97
2022-09-21T10:25:50.758Z,965.92
2022-09-21T10:26:50.706Z,965.91
2022-09-21T10:27:50.688Z,965.87
2022-09-21T10:28:50.601Z,965.85
2022-09-21T10:29:50.717Z,965.89
2022-09-21T10:30:50.702Z,965.9
2022-09-21T10:31:50.600Z,965.88
2022-09-21T10:32:50.724Z,965.87
2022-09-21T10:33:50.698Z,965.85
2022-09-21T10:35:50.732Z,965.86
2022-09-21T10:36:50.624Z,965.8
2022-09-21T10:37:50.619Z,965.75
2022-09-21T10:38:50.839Z,965.72
2022-09-21T10:39:50.696Z,965.74
2022-09-21T10:40:50.722Z,965.75
2022-09-21T10:41:50.632Z,965.8
2022-09-21T10:42:50.702Z,965.76
2022-09-21T10:43:50.634Z,965.69
2022-09-21T10:44:50.648Z,965.7
2022-09-21T10:45:50.706Z,965.72
2022-09-21T10:46:50.834Z,965.7
2022-09-21T10:47:50.662Z,965.67
2022-09-21T10:48:50.674Z,965.73
2022-09-21T10:49:50.661Z,965.76
2022-09-21T10:50:50.744Z,965.7
2022-09-21T10:51:50.674Z,965.74
2022-09-21T10:52:50.795Z,965.77
2022-09-21T10:53:52.383Z,965.72
2022-09-21T10:54:50.658Z,965.69
2022-09-21T10:56:04.649Z,965.74
2022-09-21T10:56:50.765Z,965.69
2022-09-21T10:57:50.674Z,965.7
2022-09-21T10:58:50.795Z,965.68
2022-09-21T10:59:50.763Z,965.7
2022-09-21T11:00:50.669Z,965.64
2022-09-21T11:01:50.744Z,965.65
2022-09-21T11:04:50.796Z,965.62
2022-09-21T11:05:50.765Z,965.65
2022-09-21T11:07:50.802Z,965.66
2022-09-21T11:08:50.713Z,965.64
2022-09-21T11:09:52.310Z,965.61
2022-09-21T11:10:50.710Z,965.58
2022-09-21T11:12:50.694Z,965.59
2022-09-21T11:13:50.816Z,965.6
2022-09-21T11:14:50.787Z,965.59
2022-09-21T11:15:50.757Z,965.62
2022-09-21T11:16:50.813Z,965.61
2022-09-21T11:17:50.790Z,965.6
2022-09-21T11:18:50.729Z,965.59
2022-09-21T11:20:50.722Z,965.58
2022-09-21T11:21:50.752Z,965.57
2022-09-21T11:22:53.224Z,965.55
2022-09-21T11:23:50.815Z,965.54
2022-09-21T11:26:50.746Z,965.59
2022-09-21T11:28:50.845Z,965.56
2022-09-21T11:29:51.765Z,965.57
2022-09-21T11:30:50.777Z,965.48
2022-09-21T11:31:50.837Z,965.46
2022-09-21T11:32:50.780Z,965.48
2022-09-21T11:33:50.872Z,965.49
2022-09-21T11:35:50.949Z,965.48
2022-09-21T11:36:50.774Z,965.53
2022-09-21T11:37:50.856Z,965.54
2022-09-21T11:38:50.811Z,965.55
2022-09-21T11:40:50.854Z,965.53
2022-09-21T11:41:50.915Z,965.5
2022-09-21T11:42:50.778Z,965.47
2022-09-21T11:43:50.850Z,965.45
2022-09-21T11:44:50.789Z,965.44
2022-09-21T11:45:50.906Z,965.48
2022-09-21T11:46:50.859Z,965.47
2022-09-21T11:48:50.899Z,965.49
2022-09-21T11:49:55.978Z,965.43
2022-09-21T11:51:50.814Z,965.43
2022-09-21T11:52:50.864Z,965.39
2022-09-21T11:53:50.830Z,965.38
2022-09-21T11:54:50.901Z,965.33
2022-09-21T11:55:50.879Z,965.34
2022-09-21T11:56:50.828Z,965.35
2022-09-21T11:57:52.825Z,965.36
2022-09-21T11:58:52.985Z,965.33
2022-09-21T11:59:50.826Z,965.35
2022-09-21T12:00:50.829Z,965.36
2022-09-21T12:01:50.834Z,965.35
2022-09-21T12:03:50.835Z,965.28
2022-09-21T12:04:50.857Z,965.31
2022-09-21T12:05:50.975Z,965.27
2022-09-21T12:06:50.873Z,965.28
2022-09-21T12:07:51.036Z,965.3
2022-09-21T12:08:50.951Z,965.28
2022-09-21T12:09:50.855Z,965.27
2022-09-21T12:10:50.851Z,965.24
2022-09-21T12:11:50.971Z,965.23
2022-09-21T12:12:50.937Z,965.24
2022-09-21T12:13:51.997Z,965.18
2022-09-21T12:15:51.028Z,965.24
2022-09-21T12:17:50.873Z,965.21
2022-09-21T12:18:50.891Z,965.23
2022-09-21T12:20:50.973Z,965.22
2022-09-21T12:21:50.946Z,965.2
2022-09-21T12:22:51.012Z,965.16
2022-09-21T12:23:50.975Z,965.24
2022-09-21T12:25:51.144Z,965.16
2022-09-21T12:26:50.973Z,965.15
2022-09-21T12:27:52.075Z,965.16
2022-09-21T12:28:50.904Z,965.11
2022-09-21T12:29:50.988Z,965.06
2022-09-21T12:30:51.082Z,965.03
2022-09-21T12:31:51.023Z,965.04
2022-09-21T12:32:51.009Z,965.09
2022-09-21T12:33:50.914Z,965.12
2022-09-21T12:34:51.021Z,965.01
2022-09-21T12:36:50.932Z,964.99
2022-09-21T12:37:51.039Z,964.98
2022-09-21T12:38:51.001Z,964.97
2022-09-21T12:39:50.925Z,964.95
2022-09-21T12:40:51.032Z,965.02
2022-09-21T12:41:51.002Z,964.99
2022-09-21T12:42:50.934Z,964.98
2022-09-21T12:43:50.937Z,965
2022-09-21T12:44:51.053Z,965.02
2022-09-21T12:45:51.239Z,964.98
2022-09-21T12:46:52.423Z,964.96
2022-09-21T12:47:51.009Z,965
2022-09-21T12:48:50.956Z,964.95
2022-09-21T12:49:51.049Z,964.98
2022-09-21T12:50:51.011Z,964.95
2022-09-21T12:51:50.952Z,964.92
2022-09-21T12:52:51.044Z,964.93
2022-09-21T12:53:52.201Z,964.9
2022-09-21T12:54:51.080Z,964.92
2022-09-21T12:55:51.050Z,964.95
2022-09-21T12:56:50.965Z,964.97
2022-09-21T12:58:04.743Z,964.95
2022-09-21T12:58:51.089Z,964.92
2022-09-21T12:59:51.125Z,964.87
2022-09-21T13:00:51.008Z,964.91
2022-09-21T13:01:54.927Z,964.9
2022-09-21T13:02:51.130Z,964.91
2022-09-21T13:03:51.101Z,964.87
2022-09-21T13:04:50.986Z,964.89
2022-09-21T13:05:50.986Z,964.82
2022-09-21T13:07:51.069Z,964.84
2022-09-21T13:08:51.072Z,964.79
2022-09-21T13:10:54.633Z,964.82
2022-09-21T13:11:51.311Z,964.86
2022-09-21T13:12:51.013Z,964.89
2022-09-21T13:14:51.017Z,964.81
2022-09-21T13:15:51.120Z,964.82
2022-09-21T13:16:51.117Z,964.8
2022-09-21T13:17:51.024Z,964.83
2022-09-21T13:18:51.167Z,964.82
2022-09-21T13:20:51.093Z,964.78
2022-09-21T13:21:51.127Z,964.77
2022-09-21T13:22:51.038Z,964.76
2022-09-21T13:23:51.046Z,964.79
2022-09-21T13:24:51.136Z,964.82
2022-09-21T13:25:51.094Z,964.85
2022-09-21T13:26:51.060Z,964.8
2022-09-21T13:27:51.046Z,964.81
2022-09-21T13:28:51.048Z,964.86
2022-09-21T13:29:51.053Z,964.82
2022-09-21T13:30:51.138Z,964.78
2022-09-21T13:31:51.085Z,964.83
2022-09-21T13:33:51.145Z,964.8
2022-09-21T13:34:51.065Z,964.75
2022-09-21T13:35:51.072Z,964.77
2022-09-21T13:36:51.078Z,964.66
2022-09-21T13:37:51.116Z,964.69
2022-09-21T13:38:51.076Z,964.65
2022-09-21T13:39:51.080Z,964.61
2022-09-21T13:42:02.661Z,964.59
2022-09-21T13:42:51.149Z,964.61
2022-09-21T13:44:51.088Z,964.6
2022-09-21T13:45:51.148Z,964.64
2022-09-21T13:46:51.097Z,964.61
2022-09-21T13:47:51.089Z,964.6
2022-09-21T13:48:51.183Z,964.65
2022-09-21T13:49:51.134Z,964.6
2022-09-21T13:50:51.110Z,964.62
2022-09-21T13:51:51.126Z,964.59
2022-09-21T13:52:51.107Z,964.58
2022-09-21T13:53:51.209Z,964.59
2022-09-21T13:54:51.168Z,964.54
2022-09-21T13:55:51.129Z,964.6
2022-09-21T13:56:51.217Z,964.57
2022-09-21T13:57:51.121Z,964.59
2022-09-21T13:58:51.133Z,964.62
2022-09-21T13:59:51.208Z,964.58
2022-09-21T14:00:51.340Z,964.61
2022-09-21T14:01:51.368Z,964.62
2022-09-21T14:02:51.285Z,964.63
2022-09-21T14:03:51.143Z,964.62
2022-09-21T14:04:51.290Z,964.64
2022-09-21T14:05:51.215Z,964.63
2022-09-21T14:06:51.140Z,964.62
2022-09-21T14:07:51.152Z,964.63
2022-09-21T14:08:51.224Z,964.67
2022-09-21T14:09:51.319Z,964.68
2022-09-21T14:11:51.231Z,964.7
2022-09-21T14:12:51.296Z,964.64
2022-09-21T14:13:51.267Z,964.66
2022-09-21T14:14:51.228Z,964.6
2022-09-21T14:15:51.162Z,964.64
2022-09-21T14:16:51.806Z,964.59
2022-09-21T14:17:51.170Z,964.55
2022-09-21T14:19:51.212Z,964.53
2022-09-21T14:20:51.387Z,964.59
2022-09-21T14:21:51.235Z,964.58
2022-09-21T14:22:51.327Z,964.6
2022-09-21T14:23:51.208Z,964.59
2022-09-21T14:24:51.205Z,964.63
2022-09-21T14:25:51.204Z,964.59
2022-09-21T14:26:51.354Z,964.6
2022-09-21T14:28:51.199Z,964.58
2022-09-21T14:29:51.202Z,964.52
2022-09-21T14:30:51.204Z,964.56
2022-09-21T14:31:51.323Z,964.53
2022-09-21T14:32:52.208Z,964.52
2022-09-21T14:33:51.345Z,964.58
2022-09-21T14:34:51.215Z,964.54
2022-09-21T14:35:51.236Z,964.53
2022-09-21T14:36:51.341Z,964.49
2022-09-21T14:37:51.299Z,964.51
2022-09-21T14:38:53.790Z,964.56
2022-09-21T14:39:51.449Z,964.61
2022-09-21T14:40:51.305Z,964.6
2022-09-21T14:41:52.261Z,964.61
2022-09-21T14:42:51.228Z,964.59
2022-09-21T14:43:51.310Z,964.63
2022-09-21T14:44:51.274Z,964.64
2022-09-21T14:45:51.362Z,964.65
2022-09-21T14:46:51.368Z,964.67
2022-09-21T14:47:55.294Z,964.62
2022-09-21T14:48:51.350Z,964.63
2022-09-21T14:49:51.419Z,964.62
2022-09-21T14:50:51.382Z,964.6
2022-09-21T14:52:52.461Z,964.61
2022-09-21T14:53:51.396Z,964.57
2022-09-21T14:56:51.277Z,964.55
2022-09-21T14:58:51.296Z,964.57
2022-09-21T14:59:51.399Z,964.56
2022-09-21T15:00:51.427Z,964.53